createdAt,value
2023-03-05T00:00:41.231Z,60.49
2023-03-05T00:04:50.084Z,60.75
2023-03-05T00:08:57.170Z,60.74
2023-03-05T00:13:00.168Z,60.68
2023-03-05T00:17:03.658Z,60.86
2023-03-05T00:21:15.609Z,60.28
2023-03-05T00:25:20.603Z,60.08
2023-03-05T00:29:23.590Z,60.74
2023-03-05T00:33:27.238Z,60.42
2023-03-05T00:37:30.125Z,60.44
2023-03-05T00:41:35.729Z,60.36
2023-03-05T00:45:39.137Z,60.80
2023-03-05T00:49:42.361Z,60.34
2023-03-05T00:53:45.582Z,60.88
2023-03-05T00:57:50.682Z,60.28
2023-03-05T01:01:53.975Z,60.96
2023-03-05T01:05:57.514Z,60.27
2023-03-05T01:10:00.450Z,60.60
2023-03-05T01:14:05.090Z,60.29
2023-03-05T01:18:08.136Z,60.92
2023-03-05T01:22:12.159Z,60.26
2023-03-05T01:26:15.384Z,60.70
2023-03-05T01:30:20.714Z,60.46
2023-03-05T01:34:23.586Z,60.23
2023-03-05T01:38:27.234Z,60.31
2023-03-05T01:42:30.133Z,60.35
2023-03-05T01:46:36.825Z,60.70
2023-03-05T01:50:40.199Z,61.27
2023-03-05T01:54:46.315Z,61.32
2023-03-05T01:58:49.578Z,60.50
2023-03-05T02:02:55.123Z,61.05
2023-03-05T02:06:58.943Z,61.21
2023-03-05T02:11:02.200Z,61.03
2023-03-05T02:15:06.828Z,61.11
2023-03-05T02:19:13.107Z,61.18
2023-03-05T02:23:19.128Z,61.81
2023-03-05T02:27:27.291Z,61.50
2023-03-05T02:31:31.605Z,61.71
2023-03-05T02:35:35.276Z,62.00
2023-03-05T02:39:40.389Z,62.47
2023-03-05T02:43:43.936Z,62.77
2023-03-05T02:47:47.263Z,63.52
2023-03-05T02:51:51.878Z,64.31
2023-03-05T02:55:56.465Z,64.44
2023-03-05T02:59:59.741Z,64.37
2023-03-05T03:04:03.123Z,64.43
2023-03-05T03:08:06.824Z,64.36
2023-03-05T03:12:12.471Z,64.51
2023-03-05T03:16:16.545Z,65.03
2023-03-05T03:20:21.405Z,64.37
2023-03-05T03:24:24.426Z,64.83
2023-03-05T03:28:29.297Z,64.57
2023-03-05T03:32:33.087Z,64.55
2023-03-05T03:36:36.442Z,64.30
2023-03-05T03:40:39.750Z,64.58
2023-03-05T03:44:44.376Z,64.93
2023-03-05T03:48:51.462Z,64.89
2023-03-05T03:52:55.409Z,64.64
2023-03-05T03:56:58.479Z,64.92
2023-03-05T04:01:03.337Z,64.44
2023-03-05T04:05:07.397Z,65.17
2023-03-05T04:09:10.914Z,65.21
2023-03-05T04:13:13.995Z,64.89
2023-03-05T04:17:18.784Z,65.14
2023-03-05T04:21:21.720Z,65.11
2023-03-05T04:25:25.402Z,65.21
2023-03-05T04:29:28.492Z,64.98
2023-03-05T04:33:33.345Z,64.57
2023-03-05T04:37:36.431Z,64.75
2023-03-05T04:41:39.939Z,65.15
2023-03-05T04:45:44.776Z,64.61
2023-03-05T04:49:49.449Z,64.47
2023-03-05T04:53:52.469Z,65.16
2023-03-05T04:57:56.284Z,64.84
2023-03-05T05:01:59.502Z,64.76
2023-03-05T05:06:04.835Z,64.81
2023-03-05T05:10:09.335Z,64.44
2023-03-05T05:14:12.731Z,65.16
2023-03-05T05:18:15.675Z,65.11
2023-03-05T05:22:20.234Z,64.96
2023-03-05T05:26:23.277Z,64.98
2023-03-05T05:30:26.888Z,64.93
2023-03-05T05:34:29.793Z,65.30
2023-03-05T05:38:35.552Z,65.08
2023-03-05T05:42:39.171Z,64.98
2023-03-05T05:46:42.569Z,65.41
2023-03-05T05:51:08.234Z,64.52
2023-03-05T05:55:14.698Z,65.22
2023-03-05T05:59:17.534Z,65.29
2023-03-05T06:03:21.754Z,65.71
2023-03-05T06:07:24.684Z,64.90
2023-03-05T06:11:30.554Z,64.99
2023-03-05T06:15:33.518Z,65.13
2023-03-05T06:19:37.366Z,64.66
2023-03-05T06:23:40.667Z,64.47
2023-03-05T06:27:46.284Z,64.60
2023-03-05T06:31:50.752Z,64.76
2023-03-05T06:35:54.532Z,64.97
2023-03-05T06:39:57.741Z,65.07
2023-03-05T06:44:03.873Z,65.08
2023-03-05T06:48:07.198Z,64.93
2023-03-05T06:52:13.495Z,64.28
2023-03-05T06:56:16.926Z,64.40
2023-03-05T07:00:22.646Z,64.02
2023-03-05T07:04:25.984Z,63.76
2023-03-05T07:08:29.458Z,63.77
2023-03-05T07:12:33.881Z,64.11
2023-03-05T07:16:38.737Z,64.57
2023-03-05T07:20:41.941Z,64.47
2023-03-05T07:24:45.161Z,64.12
2023-03-05T07:28:48.468Z,64.46
2023-03-05T07:32:53.193Z,63.78
2023-03-05T07:36:56.275Z,64.30
2023-03-05T07:41:04.570Z,64.18
2023-03-05T07:45:08.625Z,64.14
2023-03-05T07:49:13.445Z,64.54
2023-03-05T07:53:17.108Z,64.02
2023-03-05T07:57:20.522Z,64.29
2023-03-05T08:01:23.825Z,63.48
2023-03-05T08:05:28.897Z,62.87
2023-03-05T08:09:32.041Z,64.14
2023-03-05T08:13:35.461Z,63.07
2023-03-05T08:17:38.912Z,62.18
2023-03-05T08:21:44.276Z,62.83
2023-03-05T08:25:47.734Z,62.08
2023-03-05T08:29:51.209Z,61.79
2023-03-05T08:33:56.663Z,61.91
2023-03-05T08:38:01.695Z,61.71
2023-03-05T08:42:06.928Z,60.71
2023-03-05T08:46:12.394Z,61.13
2023-03-05T08:50:15.307Z,61.51
2023-03-05T08:54:19.850Z,61.32
2023-03-05T08:58:22.740Z,61.69
2023-03-05T09:02:26.004Z,61.33
2023-03-05T09:06:29.475Z,60.79
2023-03-05T09:10:34.225Z,59.56
2023-03-05T09:14:37.121Z,59.20
2023-03-05T09:18:40.973Z,59.26
2023-03-05T09:22:43.954Z,59.01
2023-03-05T09:26:49.259Z,58.64
2023-03-05T09:30:52.192Z,57.87
2023-03-05T09:34:55.326Z,58.58
2023-03-05T09:38:58.843Z,59.28
2023-03-05T09:43:19.253Z,58.82
2023-03-05T09:47:45.789Z,57.79
2023-03-05T09:51:56.275Z,58.15
2023-03-05T09:56:03.352Z,56.75
2023-03-05T10:00:22.509Z,57.98
2023-03-05T10:04:30.190Z,57.45
2023-03-05T10:08:46.300Z,56.72
2023-03-05T10:12:53.495Z,57.01
2023-03-05T10:17:25.503Z,57.98
2023-03-05T10:21:32.860Z,56.54
2023-03-05T10:25:51.506Z,55.62
2023-03-05T10:30:06.577Z,56.02
2023-03-05T10:34:31.381Z,55.65
2023-03-05T10:39:12.495Z,54.82
2023-03-05T10:43:25.397Z,55.60
2023-03-05T10:47:31.045Z,54.33
2023-03-05T10:51:39.773Z,54.16
2023-03-05T10:55:43.029Z,53.28
2023-03-05T10:59:51.162Z,53.35
2023-03-05T11:03:59.314Z,53.11
2023-03-05T11:08:25.101Z,51.78
2023-03-05T11:12:29.697Z,52.61
2023-03-05T11:16:35.037Z,51.03
2023-03-05T11:20:40.006Z,51.83
2023-03-05T11:24:47.007Z,50.09
2023-03-05T11:29:00.746Z,51.27
2023-03-05T11:33:11.804Z,52.55
2023-03-05T11:37:25.724Z,51.59
2023-03-05T11:41:37.314Z,50.89
2023-03-05T11:45:42.242Z,50.11
2023-03-05T11:49:49.745Z,50.57
2023-03-05T11:53:57.981Z,50.31
2023-03-05T11:58:14.356Z,49.70
2023-03-05T12:02:21.304Z,51.00
2023-03-05T12:06:32.974Z,51.33
2023-03-05T12:10:36.042Z,50.12
2023-03-05T12:14:49.360Z,49.82
2023-03-05T12:19:03.004Z,50.31
2023-03-05T12:23:06.420Z,48.87
2023-03-05T12:27:14.952Z,49.63
2023-03-05T12:31:37.951Z,48.87
2023-03-05T12:35:43.971Z,49.23
2023-03-05T12:39:59.723Z,50.05
2023-03-05T12:44:23.861Z,51.00
2023-03-05T12:48:45.158Z,50.82
2023-03-05T12:52:48.132Z,50.01
2023-03-05T12:56:53.729Z,49.61
2023-03-05T13:01:03.759Z,50.10
2023-03-05T13:05:21.532Z,50.84
2023-03-05T13:09:27.922Z,49.64
2023-03-05T13:13:34.967Z,49.89
2023-03-05T13:17:41.284Z,49.16
2023-03-05T13:21:46.114Z,49.32
2023-03-05T13:26:04.794Z,51.06
2023-03-05T13:30:22.451Z,50.76
2023-03-05T13:34:37.412Z,50.47
2023-03-05T13:38:48.694Z,50.33
2023-03-05T13:42:53.682Z,50.68
2023-03-05T13:47:09.765Z,51.78
2023-03-05T13:51:14.773Z,49.49
2023-03-05T13:55:19.645Z,49.88
2023-03-05T13:59:24.493Z,49.68
2023-03-05T14:03:30.385Z,51.13
2023-03-05T14:07:40.006Z,51.85
2023-03-05T14:11:53.163Z,50.54
2023-03-05T14:16:07.402Z,51.91
2023-03-05T14:20:24.402Z,51.05
2023-03-05T14:24:31.522Z,51.62
2023-03-05T14:28:37.623Z,50.96
2023-03-05T14:32:42.641Z,51.61
2023-03-05T14:36:51.218Z,52.26
2023-03-05T14:40:54.253Z,52.84
2023-03-05T14:45:00.420Z,51.91
2023-03-05T14:49:04.002Z,52.61
2023-03-05T14:53:10.401Z,53.44
2023-03-05T14:57:17.986Z,52.58
2023-03-05T15:01:22.541Z,52.06
2023-03-05T15:05:26.317Z,51.95
2023-03-05T15:09:30.500Z,51.98
2023-03-05T15:13:35.192Z,52.62
2023-03-05T15:21:42.455Z,53.83
2023-03-05T15:25:45.733Z,52.79
2023-03-05T15:29:48.940Z,53.21
2023-03-05T15:33:51.830Z,53.17
2023-03-05T15:37:58.465Z,52.84
2023-03-05T15:42:01.658Z,52.09
2023-03-05T15:46:06.659Z,52.78
2023-03-05T15:50:11.493Z,54.00
2023-03-05T15:54:16.631Z,52.62
2023-03-05T15:58:20.035Z,52.45
2023-03-05T16:02:24.973Z,53.03
2023-03-05T16:06:28.208Z,52.38
2023-03-05T16:10:33.042Z,53.43
2023-03-05T16:14:36.269Z,53.76
2023-03-05T16:18:45.240Z,53.17
2023-03-05T16:22:49.389Z,53.24
2023-03-05T16:26:54.022Z,52.84
2023-03-05T16:30:59.666Z,53.57
2023-03-05T16:35:02.941Z,54.32
2023-03-05T16:39:06.427Z,53.88
2023-03-05T16:43:11.169Z,53.43
2023-03-05T16:47:14.346Z,53.63
2023-03-05T16:51:19.302Z,54.08
2023-03-05T16:55:23.078Z,54.47
2023-03-05T16:59:27.649Z,54.40
2023-03-05T17:03:31.177Z,54.78
2023-03-05T17:07:35.148Z,55.35
2023-03-05T17:11:40.937Z,54.88
2023-03-05T17:15:45.626Z,54.84
2023-03-05T17:19:49.531Z,55.98
2023-03-05T17:23:52.434Z,56.50
2023-03-05T17:27:56.061Z,56.11
2023-03-05T17:32:00.999Z,56.41
2023-03-05T17:36:05.313Z,56.47
2023-03-05T17:40:09.914Z,57.26
2023-03-05T17:44:13.328Z,57.17
2023-03-05T17:48:18.131Z,56.80
2023-03-05T17:52:21.803Z,57.53
2023-03-05T17:56:26.685Z,57.52
2023-03-05T18:00:31.789Z,58.18
2023-03-05T18:04:36.393Z,57.97
2023-03-05T18:08:39.682Z,58.27
2023-03-05T18:12:43.005Z,58.10
2023-03-05T18:16:48.428Z,58.02
2023-03-05T18:20:52.785Z,57.53
2023-03-05T18:24:56.387Z,56.93
2023-03-05T18:28:59.521Z,56.75
2023-03-05T18:33:03.027Z,57.15
2023-03-05T18:37:07.728Z,56.77
2023-03-05T18:41:11.145Z,56.95
2023-03-05T18:45:16.604Z,56.87
2023-03-05T18:49:20.094Z,55.96
2023-03-05T18:53:25.658Z,56.21
2023-03-05T18:57:28.818Z,56.27
2023-03-05T19:01:32.072Z,55.73
2023-03-05T19:05:36.247Z,56.06
2023-03-05T19:09:57.078Z,56.89
2023-03-05T19:14:01.200Z,57.19
2023-03-05T19:18:05.058Z,56.53
2023-03-05T19:22:08.886Z,56.20
2023-03-05T19:26:13.553Z,56.13
2023-03-05T19:30:19.061Z,56.00
2023-03-05T19:34:22.138Z,55.57
2023-03-05T19:38:25.389Z,55.27
2023-03-05T19:42:35.212Z,55.80
2023-03-05T19:46:40.499Z,55.26
2023-03-05T19:50:43.956Z,55.08
2023-03-05T19:54:50.016Z,55.79
2023-03-05T19:58:54.661Z,55.20
2023-03-05T20:02:59.202Z,55.86
2023-03-05T20:07:03.846Z,55.26
2023-03-05T20:11:07.910Z,54.95
2023-03-05T20:15:12.894Z,54.35
2023-03-05T20:19:18.700Z,55.33
2023-03-05T20:23:22.188Z,55.43
2023-03-05T20:27:25.379Z,55.24
2023-03-05T20:31:30.249Z,54.30
2023-03-05T20:35:34.739Z,55.96
2023-03-05T20:39:37.643Z,56.46
2023-03-05T20:43:45.400Z,54.64
2023-03-05T20:47:49.672Z,55.24
2023-03-05T20:51:53.168Z,54.90
2023-03-05T20:55:56.392Z,55.09
2023-03-05T21:00:00.282Z,55.22
2023-03-05T21:04:05.551Z,53.97
2023-03-05T21:08:08.853Z,54.60
2023-03-05T21:12:12.058Z,54.87
2023-03-05T21:16:18.114Z,54.77
2023-03-05T21:20:24.671Z,54.44
2023-03-05T21:25:16.636Z,55.82
2023-03-05T21:29:19.630Z,56.32
2023-03-05T21:33:25.239Z,55.41
2023-03-05T21:37:30.257Z,56.20
2023-03-05T21:41:34.028Z,56.70
2023-03-05T21:45:37.102Z,56.70
2023-03-05T21:49:41.103Z,56.37
2023-03-05T21:53:45.927Z,56.19
2023-03-05T21:57:49.056Z,56.51
2023-03-05T22:01:52.664Z,56.25
2023-03-05T22:05:56.442Z,56.95
2023-03-05T22:10:00.833Z,56.88
2023-03-05T22:14:04.292Z,56.84
2023-03-05T22:18:07.301Z,57.21
2023-03-05T22:22:10.566Z,57.28
2023-03-05T22:26:15.334Z,57.09
2023-03-05T22:30:18.702Z,57.50
2023-03-05T22:34:21.664Z,57.36
2023-03-05T22:38:26.288Z,57.91
2023-03-05T22:42:30.980Z,58.00
2023-03-05T22:46:34.624Z,57.68
2023-03-05T22:50:37.762Z,57.81
2023-03-05T22:54:41.216Z,58.84
2023-03-05T22:58:45.742Z,58.60
2023-03-05T23:02:49.632Z,58.55
2023-03-05T23:06:52.624Z,58.08
2023-03-05T23:10:55.859Z,58.34
2023-03-05T23:15:02.122Z,58.49
2023-03-05T23:19:06.606Z,58.60
2023-03-05T23:23:09.581Z,58.37
2023-03-05T23:27:16.664Z,58.77
2023-03-05T23:31:21.292Z,58.30
2023-03-05T23:35:27.190Z,58.94
2023-03-05T23:39:30.273Z,59.09
2023-03-05T23:43:33.550Z,58.59
2023-03-05T23:47:37.955Z,59.07
2023-03-05T23:51:41.639Z,58.84
2023-03-05T23:55:45.739Z,59.09
2023-03-05T23:59:48.988Z,59.41
